createdAt,value
2022-11-28T00:01:41.161Z,25.53
2022-11-28T00:04:09.835Z,28.50
2022-11-28T00:06:41.538Z,26.13
2022-11-28T00:09:10.131Z,27.00
2022-11-28T00:11:40.468Z,25.17
2022-11-28T00:14:09.079Z,26.57
2022-11-28T00:16:37.919Z,27.30
2022-11-28T00:19:07.567Z,25.70
2022-11-28T00:21:36.400Z,25.30
2022-11-28T00:24:06.954Z,27.20
2022-11-28T00:26:37.376Z,27.30
2022-11-28T00:29:07.724Z,26.27
2022-11-28T00:31:42.351Z,27.33
2022-11-28T00:34:12.136Z,27.20
2022-11-28T00:36:40.992Z,25.03
2022-11-28T00:39:10.594Z,26.80
2022-11-28T00:41:39.013Z,27.47
2022-11-28T00:44:07.338Z,26.80
2022-11-28T00:46:35.686Z,25.23
2022-11-28T00:49:03.846Z,24.87
2022-11-28T00:51:33.901Z,27.57
2022-11-28T00:54:03.727Z,24.80
2022-11-28T00:56:36.359Z,32.00
2022-11-28T00:59:04.822Z,28.77
2022-11-28T01:01:35.815Z,23.90
2022-11-28T01:04:06.163Z,27.57
2022-11-28T01:06:36.246Z,26.03
2022-11-28T01:09:06.667Z,29.00
2022-11-28T01:11:38.396Z,28.93
2022-11-28T01:14:07.177Z,28.50
2022-11-28T01:16:35.611Z,30.00
2022-11-28T01:19:03.791Z,27.20
2022-11-28T01:21:32.682Z,25.57
2022-11-28T01:24:00.733Z,28.77
2022-11-28T01:26:31.270Z,28.10
2022-11-28T01:29:01.864Z,28.80
2022-11-28T01:31:31.208Z,27.47
2022-11-28T01:33:59.413Z,28.20
2022-11-28T01:36:28.184Z,27.53
2022-11-28T01:38:56.247Z,25.73
2022-11-28T01:41:27.281Z,30.33
2022-11-28T01:44:04.933Z,26.87
2022-11-28T01:46:34.521Z,27.13
2022-11-28T01:49:10.445Z,26.20
2022-11-28T01:51:41.286Z,26.10
2022-11-28T01:54:09.536Z,27.27
2022-11-28T01:56:44.260Z,26.77
2022-11-28T01:59:17.042Z,25.60
2022-11-28T02:01:46.353Z,25.00
2022-11-28T02:04:15.332Z,24.47
2022-11-28T02:06:44.340Z,25.47
2022-11-28T02:09:15.234Z,25.40
2022-11-28T02:12:12.548Z,25.67
2022-11-28T02:15:10.880Z,23.30
2022-11-28T02:17:53.604Z,25.53
2022-11-28T02:20:56.278Z,24.77
2022-11-28T02:23:32.291Z,23.23
2022-11-28T02:26:28.147Z,25.10
2022-11-28T02:29:26.997Z,23.93
2022-11-28T02:32:15.771Z,23.20
2022-11-28T02:34:51.685Z,25.23
2022-11-28T02:37:26.698Z,23.50
2022-11-28T02:40:04.357Z,23.57
2022-11-28T02:42:39.770Z,24.10
2022-11-28T02:45:12.032Z,26.30
2022-11-28T02:47:46.334Z,23.83
2022-11-28T02:50:20.042Z,24.90
2022-11-28T02:52:51.510Z,22.90
2022-11-28T02:55:20.323Z,23.83
2022-11-28T02:57:50.514Z,22.97
2022-11-28T03:00:28.440Z,22.63
2022-11-28T03:03:15.485Z,21.87
2022-11-28T03:05:49.302Z,22.53
2022-11-28T03:08:31.547Z,23.97
2022-11-28T03:11:06.153Z,23.70
2022-11-28T03:13:41.931Z,22.30
2022-11-28T03:16:18.821Z,23.20
2022-11-28T03:18:59.196Z,23.53
2022-11-28T03:21:37.546Z,22.70
2022-11-28T03:24:11.486Z,23.47
2022-11-28T03:26:48.210Z,23.60
2022-11-28T03:29:21.851Z,22.70
2022-11-28T03:31:55.060Z,22.73
2022-11-28T03:34:28.927Z,24.77
2022-11-28T03:37:00.805Z,24.03
2022-11-28T03:39:33.044Z,23.23
2022-11-28T03:42:06.120Z,21.70
2022-11-28T03:44:41.105Z,22.33
2022-11-28T03:47:10.401Z,24.13
2022-11-28T03:49:44.971Z,24.93
2022-11-28T03:52:17.206Z,25.03
2022-11-28T03:54:52.262Z,24.23
2022-11-28T03:57:27.233Z,22.80
2022-11-28T03:59:58.424Z,22.40
2022-11-28T04:02:33.312Z,22.93
2022-11-28T04:05:09.250Z,22.20
2022-11-28T04:07:44.744Z,23.37
2022-11-28T04:10:19.984Z,23.07
2022-11-28T04:12:55.130Z,22.53
2022-11-28T04:15:31.566Z,20.13
2022-11-28T04:18:07.137Z,22.73
2022-11-28T04:20:42.803Z,21.97
2022-11-28T04:23:14.568Z,22.87
2022-11-28T04:25:47.011Z,20.50
2022-11-28T04:28:19.818Z,21.27
2022-11-28T04:30:51.114Z,20.87
2022-11-28T04:33:22.201Z,20.63
2022-11-28T04:35:54.198Z,21.97
2022-11-28T04:38:24.379Z,20.67
2022-11-28T04:40:58.097Z,20.90
2022-11-28T04:43:29.949Z,20.87
2022-11-28T04:46:05.344Z,20.67
2022-11-28T04:48:34.561Z,20.70
2022-11-28T04:51:15.996Z,19.33
2022-11-28T04:53:50.873Z,21.90
2022-11-28T04:56:22.927Z,22.67
2022-11-28T04:58:52.139Z,20.13
2022-11-28T05:01:25.296Z,20.33
2022-11-28T05:03:55.084Z,20.17
2022-11-28T05:06:27.150Z,19.00
2022-11-28T05:08:55.652Z,20.00
2022-11-28T05:11:23.904Z,19.50
2022-11-28T05:13:52.425Z,19.90
2022-11-28T05:16:20.869Z,18.80
2022-11-28T05:18:49.321Z,19.03
2022-11-28T05:21:17.372Z,17.90
2022-11-28T05:23:47.087Z,19.57
2022-11-28T05:26:17.348Z,20.47
2022-11-28T05:28:46.163Z,19.00
2022-11-28T05:31:15.104Z,18.57
2022-11-28T05:33:43.393Z,20.53
2022-11-28T05:36:13.832Z,18.97
2022-11-28T05:38:43.044Z,19.43
2022-11-28T05:41:20.387Z,19.50
2022-11-28T05:43:48.787Z,18.60
2022-11-28T05:46:17.319Z,19.60
2022-11-28T05:48:45.725Z,21.07
2022-11-28T05:51:13.843Z,18.90
2022-11-28T05:53:42.365Z,19.13
2022-11-28T05:56:13.855Z,21.07
2022-11-28T05:58:42.561Z,19.87
2022-11-28T06:01:12.144Z,20.50
2022-11-28T06:03:40.627Z,19.67
2022-11-28T06:06:14.254Z,18.90
2022-11-28T06:08:42.926Z,18.13
2022-11-28T06:11:14.734Z,18.33
2022-11-28T06:13:43.211Z,19.57
2022-11-28T06:16:12.385Z,19.37
2022-11-28T06:18:41.452Z,19.50
2022-11-28T06:21:12.238Z,20.13
2022-11-28T06:23:41.380Z,19.40
2022-11-28T06:26:11.426Z,19.93
2022-11-28T06:28:41.661Z,19.80
2022-11-28T06:31:12.377Z,18.93
2022-11-28T06:33:41.295Z,18.43
2022-11-28T06:36:11.030Z,20.27
2022-11-28T06:38:40.178Z,17.73
2022-11-28T06:41:10.952Z,16.63
2022-11-28T06:43:41.184Z,18.97
2022-11-28T06:46:15.894Z,17.97
2022-11-28T06:48:45.095Z,17.93
2022-11-28T06:51:14.142Z,19.73
2022-11-28T06:53:42.793Z,20.27
2022-11-28T06:56:13.924Z,18.97
2022-11-28T06:58:44.471Z,17.07
2022-11-28T07:01:14.565Z,17.47
2022-11-28T07:03:43.978Z,19.00
2022-11-28T07:06:13.635Z,16.57
2022-11-28T07:08:42.716Z,17.67
2022-11-28T07:11:13.409Z,17.47
2022-11-28T07:13:45.667Z,17.60
2022-11-28T07:16:16.657Z,16.77
2022-11-28T07:18:45.458Z,19.07
2022-11-28T07:21:14.589Z,14.67
2022-11-28T07:23:44.286Z,18.43
2022-11-28T07:26:14.257Z,17.47
2022-11-28T07:28:45.217Z,15.70
2022-11-28T07:31:15.589Z,18.73
2022-11-28T07:33:46.494Z,17.63
2022-11-28T07:36:17.930Z,16.60
2022-11-28T07:38:48.713Z,16.57
2022-11-28T07:41:17.399Z,15.53
2022-11-28T07:43:48.259Z,17.87
2022-11-28T07:46:18.840Z,16.43
2022-11-28T07:48:48.978Z,15.60
2022-11-28T07:51:19.160Z,15.87
2022-11-28T07:53:47.546Z,18.23
2022-11-28T07:56:17.347Z,14.77
2022-11-28T07:58:48.550Z,16.93
2022-11-28T08:01:19.554Z,17.03
2022-11-28T08:03:48.697Z,14.47
2022-11-28T08:06:18.730Z,18.13
2022-11-28T08:08:48.368Z,16.37
2022-11-28T08:11:17.939Z,17.07
2022-11-28T08:13:47.691Z,16.00
2022-11-28T08:16:18.134Z,17.43
2022-11-28T08:18:47.431Z,16.27
2022-11-28T08:21:17.156Z,15.67
2022-11-28T08:23:46.176Z,17.27
2022-11-28T08:26:16.510Z,16.63
2022-11-28T08:28:45.624Z,16.00
2022-11-28T08:31:17.175Z,17.77
2022-11-28T08:33:46.881Z,16.03
2022-11-28T08:36:16.701Z,16.17
2022-11-28T08:38:57.800Z,17.37
2022-11-28T08:41:34.236Z,16.80
2022-11-28T08:44:02.553Z,17.73
2022-11-28T08:46:32.578Z,16.33
2022-11-28T08:49:04.427Z,17.00
2022-11-28T08:51:33.265Z,15.87
2022-11-28T08:54:01.657Z,17.53
2022-11-28T08:56:29.946Z,17.73
2022-11-28T08:58:58.372Z,18.10
2022-11-28T09:01:28.263Z,17.13
2022-11-28T09:03:58.843Z,21.37
2022-11-28T09:06:27.030Z,22.07
2022-11-28T09:08:55.390Z,19.73
2022-11-28T09:11:24.575Z,23.80
2022-11-28T09:13:53.182Z,27.50
2022-11-28T09:16:21.215Z,23.40
2022-11-28T09:18:49.632Z,22.07
2022-11-28T09:21:19.017Z,21.70
2022-11-28T09:23:47.704Z,21.10
2022-11-28T09:26:17.339Z,18.97
2022-11-28T09:28:46.339Z,18.97
2022-11-28T09:31:15.718Z,16.67
2022-11-28T09:33:44.578Z,19.73
2022-11-28T09:36:14.514Z,21.87
2022-11-28T09:38:44.179Z,19.23
2022-11-28T09:41:32.788Z,20.53
2022-11-28T09:44:04.383Z,22.90
2022-11-28T09:46:36.586Z,19.60
2022-11-28T09:49:13.891Z,19.63
2022-11-28T09:51:52.013Z,18.73
2022-11-28T09:54:30.357Z,17.67
2022-11-28T09:56:59.876Z,19.13
2022-11-28T09:59:30.736Z,17.00
2022-11-28T10:02:13.089Z,19.97
2022-11-28T10:04:43.806Z,19.27
2022-11-28T10:07:20.642Z,17.27
2022-11-28T10:10:00.860Z,17.13
2022-11-28T10:12:40.828Z,17.93
2022-11-28T10:15:26.674Z,18.07
2022-11-28T10:18:06.936Z,18.77
2022-11-28T10:20:40.140Z,19.47
2022-11-28T10:23:15.012Z,20.13
2022-11-28T10:25:48.396Z,18.30
2022-11-28T10:28:19.102Z,15.33
2022-11-28T10:30:53.725Z,20.30
2022-11-28T10:33:26.315Z,17.50
2022-11-28T10:35:57.501Z,18.50
2022-11-28T10:38:27.753Z,17.83
2022-11-28T10:41:03.857Z,18.20
2022-11-28T10:43:40.315Z,20.50
2022-11-28T10:46:30.400Z,18.97
2022-11-28T10:49:06.212Z,20.53
2022-11-28T10:51:45.091Z,20.37
2022-11-28T10:54:22.171Z,20.00
2022-11-28T10:57:01.470Z,20.77
2022-11-28T10:59:40.997Z,20.30
2022-11-28T11:02:21.182Z,20.37
2022-11-28T11:04:49.572Z,21.37
2022-11-28T11:07:29.124Z,20.73
2022-11-28T11:10:01.060Z,21.10
2022-11-28T11:12:35.377Z,19.73
2022-11-28T11:15:17.679Z,20.20
2022-11-28T11:17:52.402Z,19.87
2022-11-28T11:20:38.001Z,19.20
2022-11-28T11:23:16.762Z,19.73
2022-11-28T11:25:54.512Z,19.33
2022-11-28T11:28:36.309Z,20.80
2022-11-28T11:31:07.693Z,18.30
2022-11-28T11:33:38.600Z,20.00
2022-11-28T11:36:26.528Z,16.83
2022-11-28T11:39:10.528Z,18.13
2022-11-28T11:41:40.089Z,18.97
2022-11-28T11:44:34.120Z,18.60
2022-11-28T11:47:10.113Z,18.33
2022-11-28T11:49:41.637Z,18.63
2022-11-28T11:52:18.699Z,18.20
2022-11-28T11:55:02.101Z,19.30
2022-11-28T11:57:35.046Z,18.10
2022-11-28T12:00:08.107Z,20.23
2022-11-28T12:02:46.956Z,20.20
2022-11-28T12:05:18.255Z,18.07
2022-11-28T12:07:54.982Z,18.67
2022-11-28T12:10:27.129Z,19.23
2022-11-28T12:12:56.506Z,17.63
2022-11-28T12:15:35.991Z,19.00
2022-11-28T12:18:19.620Z,18.27
2022-11-28T12:21:14.144Z,18.40
2022-11-28T12:23:59.422Z,18.57
2022-11-28T12:26:37.612Z,18.97
2022-11-28T12:31:57.533Z,18.80
2022-11-28T12:34:37.486Z,18.70
2022-11-28T12:37:16.101Z,18.43
2022-11-28T12:39:57.178Z,18.13
2022-11-28T12:42:44.876Z,16.63
2022-11-28T12:45:26.186Z,18.00
2022-11-28T12:48:08.244Z,17.37
2022-11-28T12:50:39.908Z,18.50
2022-11-28T12:53:26.684Z,17.63
2022-11-28T12:56:05.328Z,17.90
2022-11-28T12:58:40.324Z,19.03
2022-11-28T13:01:27.391Z,18.57
2022-11-28T13:04:06.929Z,17.27
2022-11-28T13:06:44.614Z,17.43
2022-11-28T13:09:28.784Z,17.70
2022-11-28T13:12:10.861Z,18.77
2022-11-28T13:14:48.625Z,17.37
2022-11-28T13:17:30.176Z,20.10
2022-11-28T13:20:06.891Z,17.47
2022-11-28T13:22:46.069Z,17.93
2022-11-28T13:25:23.622Z,17.70
2022-11-28T13:27:56.966Z,18.50
2022-11-28T13:30:27.908Z,17.33
2022-11-28T13:33:02.339Z,16.77
2022-11-28T13:35:32.457Z,17.53
2022-11-28T13:41:00.899Z,17.80
2022-11-28T13:43:46.446Z,16.43
2022-11-28T13:46:15.916Z,17.83
2022-11-28T13:49:20.438Z,17.67
2022-11-28T13:52:13.893Z,17.17
2022-11-28T13:54:47.796Z,15.30
2022-11-28T13:57:32.384Z,17.53
2022-11-28T14:00:05.545Z,17.03
2022-11-28T14:02:47.306Z,17.67
2022-11-28T14:05:31.766Z,15.87
2022-11-28T14:08:02.959Z,15.40
2022-11-28T14:10:54.365Z,14.93
2022-11-28T14:13:40.370Z,14.73
2022-11-28T14:16:20.242Z,17.03
2022-11-28T14:19:02.899Z,15.53
2022-11-28T14:21:43.850Z,16.90
2022-11-28T14:24:22.500Z,15.17
2022-11-28T14:27:00.132Z,16.50
2022-11-28T14:29:35.635Z,15.90
2022-11-28T14:34:55.564Z,16.03
2022-11-28T14:37:56.121Z,15.37
2022-11-28T14:41:01.373Z,16.07
2022-11-28T14:43:32.586Z,14.53
2022-11-28T14:46:28.404Z,17.53
2022-11-28T14:49:19.206Z,17.23
2022-11-28T14:52:30.861Z,16.67
2022-11-28T14:54:56.544Z,16.67
2022-11-28T14:57:28.478Z,17.90
2022-11-28T15:00:00.144Z,16.67
2022-11-28T15:02:40.508Z,16.07
2022-11-28T15:05:20.412Z,17.33
2022-11-28T15:08:09.851Z,17.07
2022-11-28T15:10:47.097Z,17.20
2022-11-28T15:13:31.346Z,17.37
2022-11-28T15:16:03.748Z,17.20
2022-11-28T15:18:33.477Z,18.40
2022-11-28T15:21:05.439Z,17.50
2022-11-28T15:23:36.828Z,18.10
2022-11-28T15:26:06.842Z,18.43
2022-11-28T15:28:36.095Z,17.90
2022-11-28T15:31:06.541Z,19.37
2022-11-28T15:33:35.410Z,17.30
2022-11-28T15:36:10.771Z,18.23
2022-11-28T15:38:42.331Z,17.30
2022-11-28T15:41:11.039Z,18.40
2022-11-28T15:43:44.945Z,18.37
2022-11-28T15:46:19.925Z,18.23
2022-11-28T15:48:50.580Z,18.63
2022-11-28T15:51:27.376Z,18.83
2022-11-28T15:53:56.178Z,18.10
2022-11-28T15:56:24.499Z,16.90
2022-11-28T15:58:54.035Z,17.87
2022-11-28T16:01:25.068Z,16.60
2022-11-28T16:03:57.503Z,19.27
2022-11-28T16:06:27.850Z,19.17
2022-11-28T16:08:58.322Z,19.43
2022-11-28T16:11:29.654Z,19.17
2022-11-28T16:14:01.239Z,19.13
2022-11-28T16:16:35.464Z,17.63
2022-11-28T16:19:07.133Z,18.13
2022-11-28T16:21:38.658Z,18.40
2022-11-28T16:24:18.756Z,18.77
2022-11-28T16:26:56.059Z,18.43
2022-11-28T16:29:26.104Z,19.27
2022-11-28T16:32:08.101Z,17.93
2022-11-28T16:34:46.949Z,20.63
2022-11-28T16:37:18.853Z,20.17
2022-11-28T16:39:47.542Z,19.03
2022-11-28T16:42:20.132Z,18.53
2022-11-28T16:44:48.521Z,19.03
2022-11-28T16:47:28.111Z,19.00
2022-11-28T16:50:20.093Z,17.93
2022-11-28T16:52:50.864Z,18.53
2022-11-28T16:55:40.447Z,18.23
2022-11-28T16:58:20.291Z,18.97
2022-11-28T17:00:59.066Z,20.63
2022-11-28T17:03:52.495Z,19.53
2022-11-28T17:06:28.506Z,19.33
2022-11-28T17:08:56.741Z,19.53
2022-11-28T17:11:29.765Z,18.17
2022-11-28T17:13:58.957Z,17.73
2022-11-28T17:16:29.697Z,18.63
2022-11-28T17:18:59.159Z,17.70
2022-11-28T17:21:32.937Z,17.63
2022-11-28T17:24:01.854Z,17.57
2022-11-28T17:26:30.774Z,20.20
2022-11-28T17:28:59.295Z,18.17
2022-11-28T17:31:27.674Z,18.60
2022-11-28T17:33:55.866Z,20.07
2022-11-28T17:36:25.560Z,19.53
2022-11-28T17:38:53.770Z,19.00
2022-11-28T17:41:23.272Z,18.40
2022-11-28T17:43:51.333Z,17.73
2022-11-28T17:46:21.492Z,16.33
2022-11-28T17:48:49.602Z,18.60
2022-11-28T17:51:18.060Z,18.33
2022-11-28T17:53:47.687Z,17.20
2022-11-28T17:56:15.987Z,18.10
2022-11-28T17:58:44.887Z,17.80
2022-11-28T18:01:18.654Z,17.63
2022-11-28T18:03:46.933Z,18.47
2022-11-28T18:06:17.556Z,16.17
2022-11-28T18:08:49.002Z,18.10
2022-11-28T18:11:19.237Z,18.07
2022-11-28T18:13:48.023Z,17.13
2022-11-28T18:16:20.125Z,17.70
2022-11-28T18:18:48.600Z,18.03
2022-11-28T18:21:17.832Z,15.87
2022-11-28T18:23:50.461Z,17.47
2022-11-28T18:26:22.861Z,15.63
2022-11-28T18:28:52.015Z,17.03
2022-11-28T18:31:22.946Z,16.73
2022-11-28T18:33:51.883Z,18.00
2022-11-28T18:36:22.430Z,16.97
2022-11-28T18:38:55.424Z,16.37
2022-11-28T18:41:25.175Z,16.13
2022-11-28T18:43:56.013Z,16.57
2022-11-28T18:46:25.254Z,17.43
2022-11-28T18:48:54.126Z,16.23
2022-11-28T18:51:26.456Z,18.07
2022-11-28T18:53:57.201Z,18.20
2022-11-28T18:56:27.229Z,15.87
2022-11-28T18:58:58.215Z,16.83
2022-11-28T19:01:30.327Z,16.17
2022-11-28T19:04:00.225Z,16.37
2022-11-28T19:06:30.231Z,16.37
2022-11-28T19:09:01.417Z,15.67
2022-11-28T19:11:30.438Z,17.00
2022-11-28T19:13:59.534Z,16.10
2022-11-28T19:16:32.987Z,17.27
2022-11-28T19:19:02.325Z,16.37
2022-11-28T19:21:32.889Z,16.57
2022-11-28T19:24:05.235Z,17.50
2022-11-28T19:26:34.356Z,15.17
2022-11-28T19:29:03.310Z,17.83
2022-11-28T19:31:33.203Z,17.50
2022-11-28T19:34:03.039Z,18.07
2022-11-28T19:36:35.394Z,17.77
2022-11-28T19:39:06.996Z,16.83
2022-11-28T19:41:35.881Z,16.27
2022-11-28T19:44:04.097Z,17.20
2022-11-28T19:46:35.715Z,16.67
2022-11-28T19:49:06.570Z,16.50
2022-11-28T19:51:35.797Z,15.90
2022-11-28T19:54:05.700Z,16.47
2022-11-28T19:56:35.206Z,15.37
2022-11-28T19:59:03.483Z,17.87
2022-11-28T20:01:32.077Z,16.40
2022-11-28T20:04:00.298Z,16.13
2022-11-28T20:06:30.978Z,18.33
2022-11-28T20:09:00.855Z,17.33
2022-11-28T20:11:33.127Z,18.20
2022-11-28T20:14:03.580Z,15.10
2022-11-28T20:16:33.558Z,15.17
2022-11-28T20:19:02.635Z,17.03
2022-11-28T20:21:32.069Z,15.30
2022-11-28T20:24:04.424Z,16.07
2022-11-28T20:26:38.424Z,15.23
2022-11-28T20:29:07.249Z,18.53
2022-11-28T20:31:38.401Z,16.97
2022-11-28T20:34:07.256Z,16.53
2022-11-28T20:36:36.260Z,18.20
2022-11-28T20:39:06.360Z,16.00
2022-11-28T20:41:36.201Z,15.03
2022-11-28T20:44:04.547Z,17.13
2022-11-28T20:46:35.569Z,16.23
2022-11-28T20:49:06.388Z,14.60
2022-11-28T20:51:36.066Z,18.70
2022-11-28T20:54:05.787Z,15.23
2022-11-28T20:57:05.192Z,16.77
2022-11-28T20:59:27.499Z,15.53
2022-11-28T21:01:55.909Z,17.60
2022-11-28T21:04:24.088Z,16.03
2022-11-28T21:06:53.029Z,16.53
2022-11-28T21:09:21.070Z,15.80
2022-11-28T21:11:57.347Z,15.50
2022-11-28T21:14:27.523Z,16.57
2022-11-28T21:16:56.464Z,18.27
2022-11-28T21:19:24.840Z,17.53
2022-11-28T21:21:53.191Z,17.43
2022-11-28T21:24:21.280Z,15.93
2022-11-28T21:26:53.958Z,17.77
2022-11-28T21:29:23.924Z,14.83
2022-11-28T21:31:53.302Z,16.63
2022-11-28T21:34:22.429Z,16.43
2022-11-28T21:36:51.184Z,15.43
2022-11-28T21:39:21.958Z,16.97
2022-11-28T21:41:52.024Z,16.47
2022-11-28T21:44:20.142Z,16.97
2022-11-28T21:46:48.549Z,15.87
2022-11-28T21:49:17.665Z,15.60
2022-11-28T21:51:47.795Z,16.10
2022-11-28T21:54:16.042Z,18.07
2022-11-28T21:56:48.368Z,16.80
2022-11-28T21:59:18.162Z,16.43
2022-11-28T22:01:47.909Z,15.87
2022-11-28T22:04:16.085Z,16.07
2022-11-28T22:06:45.253Z,16.13
2022-11-28T22:09:14.847Z,16.27
2022-11-28T22:11:43.293Z,16.13
2022-11-28T22:14:12.228Z,15.97
2022-11-28T22:16:42.669Z,15.37
2022-11-28T22:19:10.719Z,17.27
2022-11-28T22:21:56.027Z,16.47
2022-11-28T22:24:24.764Z,15.63
2022-11-28T22:26:54.841Z,17.80
2022-11-28T22:29:24.586Z,15.57
2022-11-28T22:31:55.525Z,16.10
2022-11-28T22:34:24.623Z,15.90
2022-11-28T22:36:53.056Z,16.37
2022-11-28T22:39:21.909Z,16.77
2022-11-28T22:41:50.733Z,15.27
2022-11-28T22:44:20.450Z,14.97
2022-11-28T22:46:48.980Z,16.07
2022-11-28T22:49:18.785Z,17.63
2022-11-28T22:51:47.276Z,14.23
2022-11-28T22:54:15.553Z,16.63
2022-11-28T22:56:44.133Z,17.33
2022-11-28T22:59:13.935Z,16.57
2022-11-28T23:01:44.020Z,15.37
2022-11-28T23:04:12.885Z,16.73
2022-11-28T23:06:43.198Z,16.33
2022-11-28T23:09:13.976Z,15.93
2022-11-28T23:11:42.861Z,16.70
2022-11-28T23:14:12.874Z,16.17
2022-11-28T23:16:43.070Z,16.23
2022-11-28T23:19:13.723Z,16.27
2022-11-28T23:21:44.920Z,16.90
2022-11-28T23:24:14.784Z,16.77
2022-11-28T23:26:44.878Z,15.50
2022-11-28T23:29:14.644Z,15.27
2022-11-28T23:31:44.968Z,16.50
2022-11-28T23:34:13.286Z,15.50
2022-11-28T23:36:44.881Z,15.93
2022-11-28T23:39:15.354Z,14.27
2022-11-28T23:41:44.087Z,16.13
2022-11-28T23:44:12.885Z,14.97
2022-11-28T23:46:41.763Z,14.67
2022-11-28T23:49:10.846Z,13.97
2022-11-28T23:51:40.777Z,15.23
2022-11-28T23:54:11.343Z,16.47
2022-11-28T23:56:41.038Z,14.63
2022-11-28T23:59:11.536Z,15.23
